sensor_id;sensor_type;location;lat;lon;timestamp;temperature;humidity
22469;DHT22;11401;50.792;4.352;2022-12-07T00:01:31;14.90;57.50
22469;DHT22;11401;50.792;4.352;2022-12-07T00:03:59;14.90;57.20
22469;DHT22;11401;50.792;4.352;2022-12-07T00:06:34;14.80;57.40
22469;DHT22;11401;50.792;4.352;2022-12-07T00:09:01;14.80;57.40
22469;DHT22;11401;50.792;4.352;2022-12-07T00:11:28;14.80;57.40
22469;DHT22;11401;50.792;4.352;2022-12-07T00:13:58;14.80;57.40
22469;DHT22;11401;50.792;4.352;2022-12-07T00:16:28;14.80;57.30
22469;DHT22;11401;50.792;4.352;2022-12-07T00:18:56;14.80;57.30
22469;DHT22;11401;50.792;4.352;2022-12-07T00:21:25;14.80;57.60
22469;DHT22;11401;50.792;4.352;2022-12-07T00:23:53;14.70;57.40
22469;DHT22;11401;50.792;4.352;2022-12-07T00:26:32;14.70;57.50
22469;DHT22;11401;50.792;4.352;2022-12-07T00:29:04;14.70;57.40
22469;DHT22;11401;50.792;4.352;2022-12-07T00:31:34;14.70;57.40
22469;DHT22;11401;50.792;4.352;2022-12-07T00:34:07;14.80;57.40
22469;DHT22;11401;50.792;4.352;2022-12-07T00:36:34;14.80;58.00
22469;DHT22;11401;50.792;4.352;2022-12-07T00:39:02;14.80;57.30
22469;DHT22;11401;50.792;4.352;2022-12-07T00:41:29;14.80;57.10
22469;DHT22;11401;50.792;4.352;2022-12-07T00:43:56;14.70;57.30
22469;DHT22;11401;50.792;4.352;2022-12-07T00:46:24;14.80;57.50
22469;DHT22;11401;50.792;4.352;2022-12-07T00:48:52;14.70;57.20
22469;DHT22;11401;50.792;4.352;2022-12-07T00:51:21;14.70;57.40
22469;DHT22;11401;50.792;4.352;2022-12-07T00:53:49;14.60;57.20
22469;DHT22;11401;50.792;4.352;2022-12-07T00:56:19;14.60;57.40
22469;DHT22;11401;50.792;4.352;2022-12-07T00:58:55;14.60;57.30
22469;DHT22;11401;50.792;4.352;2022-12-07T01:01:23;14.60;57.20
22469;DHT22;11401;50.792;4.352;2022-12-07T01:03:51;14.60;57.30
22469;DHT22;11401;50.792;4.352;2022-12-07T01:06:19;14.60;57.50
22469;DHT22;11401;50.792;4.352;2022-12-07T01:08:46;14.60;57.50
22469;DHT22;11401;50.792;4.352;2022-12-07T01:11:16;14.60;57.50
22469;DHT22;11401;50.792;4.352;2022-12-07T01:13:44;14.60;57.60
22469;DHT22;11401;50.792;4.352;2022-12-07T01:16:15;14.60;57.50
22469;DHT22;11401;50.792;4.352;2022-12-07T01:18:46;14.60;57.50
22469;DHT22;11401;50.792;4.352;2022-12-07T01:23:42;14.60;57.50
22469;DHT22;11401;50.792;4.352;2022-12-07T01:26:15;14.60;57.40
22469;DHT22;11401;50.792;4.352;2022-12-07T01:28:43;14.60;57.40
22469;DHT22;11401;50.792;4.352;2022-12-07T01:31:13;14.50;57.40
22469;DHT22;11401;50.792;4.352;2022-12-07T01:33:45;14.60;57.50
22469;DHT22;11401;50.792;4.352;2022-12-07T01:36:19;14.60;57.40
22469;DHT22;11401;50.792;4.352;2022-12-07T01:38:48;14.50;57.50
22469;DHT22;11401;50.792;4.352;2022-12-07T01:41:15;14.50;57.50
22469;DHT22;11401;50.792;4.352;2022-12-07T01:44:21;14.50;57.70
22469;DHT22;11401;50.792;4.352;2022-12-07T01:46:57;14.50;57.80
22469;DHT22;11401;50.792;4.352;2022-12-07T01:52:08;14.50;57.60
22469;DHT22;11401;50.792;4.352;2022-12-07T01:54:37;14.50;57.50
22469;DHT22;11401;50.792;4.352;2022-12-07T01:57:06;14.50;57.60
22469;DHT22;11401;50.792;4.352;2022-12-07T01:59:33;14.50;57.60
22469;DHT22;11401;50.792;4.352;2022-12-07T02:02:02;14.50;57.40
22469;DHT22;11401;50.792;4.352;2022-12-07T02:04:31;14.40;58.20
22469;DHT22;11401;50.792;4.352;2022-12-07T02:06:58;14.40;57.70
22469;DHT22;11401;50.792;4.352;2022-12-07T02:09:25;14.40;57.60
22469;DHT22;11401;50.792;4.352;2022-12-07T02:11:52;14.40;57.80
22469;DHT22;11401;50.792;4.352;2022-12-07T02:14:20;14.40;57.70
22469;DHT22;11401;50.792;4.352;2022-12-07T02:19:39;14.40;57.80
22469;DHT22;11401;50.792;4.352;2022-12-07T02:28:01;14.40;57.80
22469;DHT22;11401;50.792;4.352;2022-12-07T02:30:35;14.30;57.90
22469;DHT22;11401;50.792;4.352;2022-12-07T02:33:37;14.40;57.90
22469;DHT22;11401;50.792;4.352;2022-12-07T02:36:28;14.40;58.00
22469;DHT22;11401;50.792;4.352;2022-12-07T02:39:02;14.40;58.00
22469;DHT22;11401;50.792;4.352;2022-12-07T02:41:44;14.40;57.50
22469;DHT22;11401;50.792;4.352;2022-12-07T02:44:15;14.40;57.80
22469;DHT22;11401;50.792;4.352;2022-12-07T02:46:53;14.40;58.00
22469;DHT22;11401;50.792;4.352;2022-12-07T02:49:22;14.40;57.80
22469;DHT22;11401;50.792;4.352;2022-12-07T02:51:52;14.40;57.90
22469;DHT22;11401;50.792;4.352;2022-12-07T02:54:20;14.40;57.90
22469;DHT22;11401;50.792;4.352;2022-12-07T03:07:54;14.40;57.80
22469;DHT22;11401;50.792;4.352;2022-12-07T03:19:11;14.30;58.00
22469;DHT22;11401;50.792;4.352;2022-12-07T03:21:43;14.30;58.00
22469;DHT22;11401;50.792;4.352;2022-12-07T03:24:17;14.30;58.10
22469;DHT22;11401;50.792;4.352;2022-12-07T03:26:49;14.30;57.80
22469;DHT22;11401;50.792;4.352;2022-12-07T03:29:23;14.30;58.00
22469;DHT22;11401;50.792;4.352;2022-12-07T03:31:58;14.30;58.10
22469;DHT22;11401;50.792;4.352;2022-12-07T03:34:44;14.30;57.90
22469;DHT22;11401;50.792;4.352;2022-12-07T03:37:49;14.30;58.10
22469;DHT22;11401;50.792;4.352;2022-12-07T03:43:02;14.30;58.00
22469;DHT22;11401;50.792;4.352;2022-12-07T03:45:44;14.40;58.10
22469;DHT22;11401;50.792;4.352;2022-12-07T03:48:25;14.40;57.90
22469;DHT22;11401;50.792;4.352;2022-12-07T03:51:04;14.30;57.50
22469;DHT22;11401;50.792;4.352;2022-12-07T03:53:34;14.30;57.80
22469;DHT22;11401;50.792;4.352;2022-12-07T03:56:03;14.30;58.00
22469;DHT22;11401;50.792;4.352;2022-12-07T03:58:31;14.30;57.80
22469;DHT22;11401;50.792;4.352;2022-12-07T04:00:59;14.20;57.70
22469;DHT22;11401;50.792;4.352;2022-12-07T04:03:26;14.20;58.10
22469;DHT22;11401;50.792;4.352;2022-12-07T04:05:53;14.20;58.40
22469;DHT22;11401;50.792;4.352;2022-12-07T04:08:20;14.30;58.30
22469;DHT22;11401;50.792;4.352;2022-12-07T04:10:48;14.30;58.10
22469;DHT22;11401;50.792;4.352;2022-12-07T04:13:15;14.30;58.10
22469;DHT22;11401;50.792;4.352;2022-12-07T04:15:41;14.30;58.00
22469;DHT22;11401;50.792;4.352;2022-12-07T04:18:08;14.30;57.90
22469;DHT22;11401;50.792;4.352;2022-12-07T04:20:35;14.30;57.80
22469;DHT22;11401;50.792;4.352;2022-12-07T04:23:02;14.30;57.90
22469;DHT22;11401;50.792;4.352;2022-12-07T04:25:29;14.30;58.00
22469;DHT22;11401;50.792;4.352;2022-12-07T04:27:56;14.30;57.90
22469;DHT22;11401;50.792;4.352;2022-12-07T04:30:23;14.30;57.90
22469;DHT22;11401;50.792;4.352;2022-12-07T04:32:50;14.30;57.70
22469;DHT22;11401;50.792;4.352;2022-12-07T04:35:17;14.20;57.40
22469;DHT22;11401;50.792;4.352;2022-12-07T04:37:44;14.10;57.40
22469;DHT22;11401;50.792;4.352;2022-12-07T04:40:11;14.10;57.60
22469;DHT22;11401;50.792;4.352;2022-12-07T04:42:40;14.00;57.70
22469;DHT22;11401;50.792;4.352;2022-12-07T04:45:08;14.00;57.70
22469;DHT22;11401;50.792;4.352;2022-12-07T04:47:35;14.00;58.10
22469;DHT22;11401;50.792;4.352;2022-12-07T04:50:03;14.00;58.10
22469;DHT22;11401;50.792;4.352;2022-12-07T04:52:30;13.90;58.40
22469;DHT22;11401;50.792;4.352;2022-12-07T04:54:57;13.90;58.40
22469;DHT22;11401;50.792;4.352;2022-12-07T04:57:24;13.90;58.50
22469;DHT22;11401;50.792;4.352;2022-12-07T04:59:51;13.90;58.40
22469;DHT22;11401;50.792;4.352;2022-12-07T05:02:18;14.00;58.90
22469;DHT22;11401;50.792;4.352;2022-12-07T05:04:45;14.00;58.30
22469;DHT22;11401;50.792;4.352;2022-12-07T05:07:12;14.00;58.40
22469;DHT22;11401;50.792;4.352;2022-12-07T05:09:39;14.10;58.50
22469;DHT22;11401;50.792;4.352;2022-12-07T05:12:06;14.10;58.30
22469;DHT22;11401;50.792;4.352;2022-12-07T05:14:33;14.10;58.10
22469;DHT22;11401;50.792;4.352;2022-12-07T05:17:00;14.00;58.70
22469;DHT22;11401;50.792;4.352;2022-12-07T05:19:27;14.00;58.20
22469;DHT22;11401;50.792;4.352;2022-12-07T05:21:53;14.10;58.70
22469;DHT22;11401;50.792;4.352;2022-12-07T05:24:20;14.10;58.20
22469;DHT22;11401;50.792;4.352;2022-12-07T05:26:47;14.20;58.20
22469;DHT22;11401;50.792;4.352;2022-12-07T05:29:16;14.20;58.10
22469;DHT22;11401;50.792;4.352;2022-12-07T05:31:44;14.20;58.90
22469;DHT22;11401;50.792;4.352;2022-12-07T05:34:11;14.20;58.20
22469;DHT22;11401;50.792;4.352;2022-12-07T05:36:39;14.20;58.30
22469;DHT22;11401;50.792;4.352;2022-12-07T05:39:06;14.30;58.20
22469;DHT22;11401;50.792;4.352;2022-12-07T05:41:34;14.30;58.00
22469;DHT22;11401;50.792;4.352;2022-12-07T05:44:19;14.30;58.10
22469;DHT22;11401;50.792;4.352;2022-12-07T05:46:46;14.40;58.10
22469;DHT22;11401;50.792;4.352;2022-12-07T05:49:13;14.40;58.10
22469;DHT22;11401;50.792;4.352;2022-12-07T05:51:40;14.40;58.20
22469;DHT22;11401;50.792;4.352;2022-12-07T05:54:07;14.40;57.80
22469;DHT22;11401;50.792;4.352;2022-12-07T05:56:34;14.30;57.60
22469;DHT22;11401;50.792;4.352;2022-12-07T05:59:01;14.10;57.90
22469;DHT22;11401;50.792;4.352;2022-12-07T06:01:46;13.90;58.40
22469;DHT22;11401;50.792;4.352;2022-12-07T06:04:14;13.80;59.00
22469;DHT22;11401;50.792;4.352;2022-12-07T06:06:42;13.60;59.20
22469;DHT22;11401;50.792;4.352;2022-12-07T06:09:09;13.50;59.90
22469;DHT22;11401;50.792;4.352;2022-12-07T06:11:36;13.40;59.80
22469;DHT22;11401;50.792;4.352;2022-12-07T06:14:22;13.30;60.40
22469;DHT22;11401;50.792;4.352;2022-12-07T06:16:49;13.30;60.50
22469;DHT22;11401;50.792;4.352;2022-12-07T06:19:16;13.30;61.00
22469;DHT22;11401;50.792;4.352;2022-12-07T06:21:43;13.20;61.00
22469;DHT22;11401;50.792;4.352;2022-12-07T06:24:14;13.20;60.90
22469;DHT22;11401;50.792;4.352;2022-12-07T06:26:42;13.20;61.10
22469;DHT22;11401;50.792;4.352;2022-12-07T06:29:09;13.20;61.40
22469;DHT22;11401;50.792;4.352;2022-12-07T06:31:37;13.20;61.10
22469;DHT22;11401;50.792;4.352;2022-12-07T06:34:08;13.20;61.10
22469;DHT22;11401;50.792;4.352;2022-12-07T06:36:36;13.20;61.10
22469;DHT22;11401;50.792;4.352;2022-12-07T06:39:04;13.20;61.50
22469;DHT22;11401;50.792;4.352;2022-12-07T06:41:32;13.20;60.40
22469;DHT22;11401;50.792;4.352;2022-12-07T06:43:58;13.10;60.40
22469;DHT22;11401;50.792;4.352;2022-12-07T06:46:25;13.20;60.70
22469;DHT22;11401;50.792;4.352;2022-12-07T06:48:53;13.20;60.50
22469;DHT22;11401;50.792;4.352;2022-12-07T06:51:20;13.20;61.00
22469;DHT22;11401;50.792;4.352;2022-12-07T06:53:47;13.10;61.50
22469;DHT22;11401;50.792;4.352;2022-12-07T06:56:14;13.10;61.10
22469;DHT22;11401;50.792;4.352;2022-12-07T06:58:41;13.10;61.30
22469;DHT22;11401;50.792;4.352;2022-12-07T07:01:10;13.10;61.00
22469;DHT22;11401;50.792;4.352;2022-12-07T07:03:37;13.10;62.00
22469;DHT22;11401;50.792;4.352;2022-12-07T07:06:05;13.30;61.50
22469;DHT22;11401;50.792;4.352;2022-12-07T07:08:34;13.40;60.30
22469;DHT22;11401;50.792;4.352;2022-12-07T07:11:01;13.50;60.20
22469;DHT22;11401;50.792;4.352;2022-12-07T07:13:28;13.60;59.90
22469;DHT22;11401;50.792;4.352;2022-12-07T07:15:55;13.70;59.60
22469;DHT22;11401;50.792;4.352;2022-12-07T07:18:22;13.80;59.50
22469;DHT22;11401;50.792;4.352;2022-12-07T07:20:53;13.80;57.80
22469;DHT22;11401;50.792;4.352;2022-12-07T07:23:20;13.70;57.00
22469;DHT22;11401;50.792;4.352;2022-12-07T07:25:47;13.70;57.10
22469;DHT22;11401;50.792;4.352;2022-12-07T07:28:15;13.70;57.20
22469;DHT22;11401;50.792;4.352;2022-12-07T07:30:42;13.60;58.10
22469;DHT22;11401;50.792;4.352;2022-12-07T07:33:10;13.60;57.80
22469;DHT22;11401;50.792;4.352;2022-12-07T07:35:37;13.60;58.40
22469;DHT22;11401;50.792;4.352;2022-12-07T07:38:05;13.70;58.50
22469;DHT22;11401;50.792;4.352;2022-12-07T07:40:32;13.70;58.70
22469;DHT22;11401;50.792;4.352;2022-12-07T07:43:00;13.70;58.90
22469;DHT22;11401;50.792;4.352;2022-12-07T07:45:27;13.80;58.70
22469;DHT22;11401;50.792;4.352;2022-12-07T07:47:54;13.80;58.50
22469;DHT22;11401;50.792;4.352;2022-12-07T07:50:22;13.90;58.40
22469;DHT22;11401;50.792;4.352;2022-12-07T07:52:49;13.90;58.80
22469;DHT22;11401;50.792;4.352;2022-12-07T07:55:16;14.00;58.60
22469;DHT22;11401;50.792;4.352;2022-12-07T07:57:43;14.00;58.20
22469;DHT22;11401;50.792;4.352;2022-12-07T08:00:18;14.00;58.40
22469;DHT22;11401;50.792;4.352;2022-12-07T08:02:46;14.10;58.30
22469;DHT22;11401;50.792;4.352;2022-12-07T08:05:13;14.10;58.20
22469;DHT22;11401;50.792;4.352;2022-12-07T08:07:41;14.10;58.20
22469;DHT22;11401;50.792;4.352;2022-12-07T08:10:11;14.20;58.30
22469;DHT22;11401;50.792;4.352;2022-12-07T08:12:40;14.20;58.40
22469;DHT22;11401;50.792;4.352;2022-12-07T08:15:30;14.20;58.30
22469;DHT22;11401;50.792;4.352;2022-12-07T08:17:57;14.20;58.20
22469;DHT22;11401;50.792;4.352;2022-12-07T08:20:24;14.20;58.30
22469;DHT22;11401;50.792;4.352;2022-12-07T08:22:51;14.20;58.20
22469;DHT22;11401;50.792;4.352;2022-12-07T08:25:18;14.20;58.50
22469;DHT22;11401;50.792;4.352;2022-12-07T08:27:45;14.20;58.20
22469;DHT22;11401;50.792;4.352;2022-12-07T08:30:12;14.30;58.10
22469;DHT22;11401;50.792;4.352;2022-12-07T08:32:39;14.30;58.00
22469;DHT22;11401;50.792;4.352;2022-12-07T08:35:07;14.30;57.60
22469;DHT22;11401;50.792;4.352;2022-12-07T08:37:35;14.40;57.80
22469;DHT22;11401;50.792;4.352;2022-12-07T08:40:05;14.40;57.80
22469;DHT22;11401;50.792;4.352;2022-12-07T08:42:32;14.40;57.80
22469;DHT22;11401;50.792;4.352;2022-12-07T08:45:10;14.40;58.10
22469;DHT22;11401;50.792;4.352;2022-12-07T08:48:08;14.40;57.80
22469;DHT22;11401;50.792;4.352;2022-12-07T08:50:37;14.40;57.80
22469;DHT22;11401;50.792;4.352;2022-12-07T08:53:07;14.40;57.80
22469;DHT22;11401;50.792;4.352;2022-12-07T08:55:34;14.40;58.00
22469;DHT22;11401;50.792;4.352;2022-12-07T08:58:02;14.50;57.90
22469;DHT22;11401;50.792;4.352;2022-12-07T09:00:30;14.50;57.80
22469;DHT22;11401;50.792;4.352;2022-12-07T09:02:57;14.50;58.50
22469;DHT22;11401;50.792;4.352;2022-12-07T09:05:24;14.60;58.10
22469;DHT22;11401;50.792;4.352;2022-12-07T09:07:56;14.60;57.80
22469;DHT22;11401;50.792;4.352;2022-12-07T09:10:24;14.60;57.90
22469;DHT22;11401;50.792;4.352;2022-12-07T09:12:52;14.60;57.80
22469;DHT22;11401;50.792;4.352;2022-12-07T09:15:19;14.60;57.70
22469;DHT22;11401;50.792;4.352;2022-12-07T09:17:46;14.70;57.80
22469;DHT22;11401;50.792;4.352;2022-12-07T09:20:13;14.70;57.50
22469;DHT22;11401;50.792;4.352;2022-12-07T09:22:40;14.70;57.60
22469;DHT22;11401;50.792;4.352;2022-12-07T09:25:07;14.60;57.40
22469;DHT22;11401;50.792;4.352;2022-12-07T09:27:34;14.60;57.70
22469;DHT22;11401;50.792;4.352;2022-12-07T09:30:02;14.60;57.70
22469;DHT22;11401;50.792;4.352;2022-12-07T09:32:30;14.60;57.80
22469;DHT22;11401;50.792;4.352;2022-12-07T09:34:57;14.70;57.90
22469;DHT22;11401;50.792;4.352;2022-12-07T09:37:24;14.70;58.00
22469;DHT22;11401;50.792;4.352;2022-12-07T09:39:51;14.60;57.60
22469;DHT22;11401;50.792;4.352;2022-12-07T09:42:39;14.70;58.10
22469;DHT22;11401;50.792;4.352;2022-12-07T09:45:13;14.70;57.90
22469;DHT22;11401;50.792;4.352;2022-12-07T09:47:41;14.70;57.80
22469;DHT22;11401;50.792;4.352;2022-12-07T09:50:29;14.80;57.90
22469;DHT22;11401;50.792;4.352;2022-12-07T09:56:06;14.80;57.70
22469;DHT22;11401;50.792;4.352;2022-12-07T09:58:33;14.90;57.80
22469;DHT22;11401;50.792;4.352;2022-12-07T10:03:32;14.90;57.80
22469;DHT22;11401;50.792;4.352;2022-12-07T10:06:00;14.90;57.60
22469;DHT22;11401;50.792;4.352;2022-12-07T10:08:27;14.90;57.50
22469;DHT22;11401;50.792;4.352;2022-12-07T10:10:55;14.80;57.60
22469;DHT22;11401;50.792;4.352;2022-12-07T10:13:37;14.90;58.00
22469;DHT22;11401;50.792;4.352;2022-12-07T10:16:04;14.90;57.70
22469;DHT22;11401;50.792;4.352;2022-12-07T10:21:21;15.00;57.50
22469;DHT22;11401;50.792;4.352;2022-12-07T10:26:50;14.90;57.70
22469;DHT22;11401;50.792;4.352;2022-12-07T10:32:02;14.90;57.80
22469;DHT22;11401;50.792;4.352;2022-12-07T10:39:53;14.80;57.70
22469;DHT22;11401;50.792;4.352;2022-12-07T10:42:21;14.80;58.10
22469;DHT22;11401;50.792;4.352;2022-12-07T10:45:06;14.90;57.70
22469;DHT22;11401;50.792;4.352;2022-12-07T10:56:23;15.00;58.00
22469;DHT22;11401;50.792;4.352;2022-12-07T11:04:43;15.00;57.70
22469;DHT22;11401;50.792;4.352;2022-12-07T11:16:24;15.00;57.90
22469;DHT22;11401;50.792;4.352;2022-12-07T11:19:11;15.10;58.00
22469;DHT22;11401;50.792;4.352;2022-12-07T11:35:35;15.20;57.70
22469;DHT22;11401;50.792;4.352;2022-12-07T11:38:07;15.20;57.90
22469;DHT22;11401;50.792;4.352;2022-12-07T11:40:36;15.30;57.50
22469;DHT22;11401;50.792;4.352;2022-12-07T11:46:34;15.30;57.50
22469;DHT22;11401;50.792;4.352;2022-12-07T11:51:20;15.20;57.50
22469;DHT22;11401;50.792;4.352;2022-12-07T11:54:11;15.20;57.50
22469;DHT22;11401;50.792;4.352;2022-12-07T11:56:39;15.20;57.50
22469;DHT22;11401;50.792;4.352;2022-12-07T11:59:17;15.20;57.60
22469;DHT22;11401;50.792;4.352;2022-12-07T12:02:02;15.10;57.40
22469;DHT22;11401;50.792;4.352;2022-12-07T12:04:56;15.10;57.50
22469;DHT22;11401;50.792;4.352;2022-12-07T12:07:26;15.10;57.70
22469;DHT22;11401;50.792;4.352;2022-12-07T12:10:58;15.10;57.70
22469;DHT22;11401;50.792;4.352;2022-12-07T12:19:25;15.20;58.00
22469;DHT22;11401;50.792;4.352;2022-12-07T12:21:57;15.30;57.90
22469;DHT22;11401;50.792;4.352;2022-12-07T12:24:29;15.30;58.10
22469;DHT22;11401;50.792;4.352;2022-12-07T12:27:05;15.40;57.70
22469;DHT22;11401;50.792;4.352;2022-12-07T12:29:36;15.40;57.00
22469;DHT22;11401;50.792;4.352;2022-12-07T12:32:21;15.40;57.00
22469;DHT22;11401;50.792;4.352;2022-12-07T12:37:54;15.30;57.10
22469;DHT22;11401;50.792;4.352;2022-12-07T12:42:49;15.30;57.30
22469;DHT22;11401;50.792;4.352;2022-12-07T12:45:21;15.30;57.40
22469;DHT22;11401;50.792;4.352;2022-12-07T12:47:59;15.30;57.40
22469;DHT22;11401;50.792;4.352;2022-12-07T12:53:04;15.30;57.00
22469;DHT22;11401;50.792;4.352;2022-12-07T12:58:33;15.30;57.10
22469;DHT22;11401;50.792;4.352;2022-12-07T13:01:35;15.30;57.20
22469;DHT22;11401;50.792;4.352;2022-12-07T13:04:17;15.30;57.30
22469;DHT22;11401;50.792;4.352;2022-12-07T13:06:46;15.30;57.40
22469;DHT22;11401;50.792;4.352;2022-12-07T13:09:25;15.20;57.40
22469;DHT22;11401;50.792;4.352;2022-12-07T13:12:14;15.20;57.40
22469;DHT22;11401;50.792;4.352;2022-12-07T13:17:11;15.20;57.70
22469;DHT22;11401;50.792;4.352;2022-12-07T13:27:56;15.20;57.50
22469;DHT22;11401;50.792;4.352;2022-12-07T13:30:24;15.20;57.50
22469;DHT22;11401;50.792;4.352;2022-12-07T13:32:53;15.20;57.50
22469;DHT22;11401;50.792;4.352;2022-12-07T13:35:34;15.20;57.50
22469;DHT22;11401;50.792;4.352;2022-12-07T13:38:05;15.20;57.60
22469;DHT22;11401;50.792;4.352;2022-12-07T13:40:32;15.30;57.40
22469;DHT22;11401;50.792;4.352;2022-12-07T13:43:04;15.30;57.40
22469;DHT22;11401;50.792;4.352;2022-12-07T13:45:33;15.20;57.30
22469;DHT22;11401;50.792;4.352;2022-12-07T13:50:53;15.20;57.40
22469;DHT22;11401;50.792;4.352;2022-12-07T13:53:21;15.20;58.00
22469;DHT22;11401;50.792;4.352;2022-12-07T13:55:49;15.20;57.50
22469;DHT22;11401;50.792;4.352;2022-12-07T13:58:21;15.10;57.30
22469;DHT22;11401;50.792;4.352;2022-12-07T14:00:48;15.10;57.60
22469;DHT22;11401;50.792;4.352;2022-12-07T14:05:44;15.10;57.60
22469;DHT22;11401;50.792;4.352;2022-12-07T14:10:39;15.00;57.70
22469;DHT22;11401;50.792;4.352;2022-12-07T14:15:55;15.00;57.70
22469;DHT22;11401;50.792;4.352;2022-12-07T14:18:28;15.00;57.70
22469;DHT22;11401;50.792;4.352;2022-12-07T14:23:38;15.10;57.60
22469;DHT22;11401;50.792;4.352;2022-12-07T14:26:18;15.00;57.80
22469;DHT22;11401;50.792;4.352;2022-12-07T14:28:46;15.10;57.90
22469;DHT22;11401;50.792;4.352;2022-12-07T14:31:17;15.00;57.70
22469;DHT22;11401;50.792;4.352;2022-12-07T14:33:59;15.00;57.70
22469;DHT22;11401;50.792;4.352;2022-12-07T14:36:26;14.90;57.80
22469;DHT22;11401;50.792;4.352;2022-12-07T14:38:53;14.90;58.10
22469;DHT22;11401;50.792;4.352;2022-12-07T14:41:23;14.90;58.10
22469;DHT22;11401;50.792;4.352;2022-12-07T14:44:12;14.90;58.50
22469;DHT22;11401;50.792;4.352;2022-12-07T14:46:59;15.00;58.30
22469;DHT22;11401;50.792;4.352;2022-12-07T14:49:46;14.90;58.30
22469;DHT22;11401;50.792;4.352;2022-12-07T14:52:27;14.90;58.40
22469;DHT22;11401;50.792;4.352;2022-12-07T14:55:21;14.90;57.90
22469;DHT22;11401;50.792;4.352;2022-12-07T14:57:51;14.80;57.30
22469;DHT22;11401;50.792;4.352;2022-12-07T15:00:18;14.80;58.00
22469;DHT22;11401;50.792;4.352;2022-12-07T15:02:48;14.90;57.90
22469;DHT22;11401;50.792;4.352;2022-12-07T15:05:15;14.80;58.00
22469;DHT22;11401;50.792;4.352;2022-12-07T15:07:44;14.80;58.10
22469;DHT22;11401;50.792;4.352;2022-12-07T15:10:23;14.80;58.10
22469;DHT22;11401;50.792;4.352;2022-12-07T15:12:51;14.80;58.00
22469;DHT22;11401;50.792;4.352;2022-12-07T15:15:18;14.80;58.10
22469;DHT22;11401;50.792;4.352;2022-12-07T15:17:45;14.80;58.00
22469;DHT22;11401;50.792;4.352;2022-12-07T15:20:14;14.80;58.00
22469;DHT22;11401;50.792;4.352;2022-12-07T15:22:43;14.80;58.10
22469;DHT22;11401;50.792;4.352;2022-12-07T15:25:13;14.80;58.10
22469;DHT22;11401;50.792;4.352;2022-12-07T15:27:40;14.80;58.00
22469;DHT22;11401;50.792;4.352;2022-12-07T15:30:08;14.90;58.00
22469;DHT22;11401;50.792;4.352;2022-12-07T15:32:35;14.90;58.30
22469;DHT22;11401;50.792;4.352;2022-12-07T15:35:02;14.90;58.20
22469;DHT22;11401;50.792;4.352;2022-12-07T15:37:29;14.90;58.20
22469;DHT22;11401;50.792;4.352;2022-12-07T15:39:56;14.90;58.20
22469;DHT22;11401;50.792;4.352;2022-12-07T15:42:29;14.90;58.00
22469;DHT22;11401;50.792;4.352;2022-12-07T15:44:56;14.90;58.10
22469;DHT22;11401;50.792;4.352;2022-12-07T15:47:41;15.00;58.00
22469;DHT22;11401;50.792;4.352;2022-12-07T15:50:28;15.00;57.90
22469;DHT22;11401;50.792;4.352;2022-12-07T15:52:55;15.00;57.90
22469;DHT22;11401;50.792;4.352;2022-12-07T15:55:22;15.00;58.10
22469;DHT22;11401;50.792;4.352;2022-12-07T15:57:49;15.00;57.80
22469;DHT22;11401;50.792;4.352;2022-12-07T16:00:17;15.00;58.00
22469;DHT22;11401;50.792;4.352;2022-12-07T16:02:44;15.00;58.10
22469;DHT22;11401;50.792;4.352;2022-12-07T16:05:11;15.00;58.10
22469;DHT22;11401;50.792;4.352;2022-12-07T16:07:38;15.00;58.00
22469;DHT22;11401;50.792;4.352;2022-12-07T16:10:06;15.00;58.10
22469;DHT22;11401;50.792;4.352;2022-12-07T16:12:33;15.10;58.10
22469;DHT22;11401;50.792;4.352;2022-12-07T16:15:00;15.10;58.00
22469;DHT22;11401;50.792;4.352;2022-12-07T16:17:27;15.10;57.90
22469;DHT22;11401;50.792;4.352;2022-12-07T16:19:54;15.10;58.00
22469;DHT22;11401;50.792;4.352;2022-12-07T16:22:21;15.00;57.90
22469;DHT22;11401;50.792;4.352;2022-12-07T16:24:48;15.00;57.90
22469;DHT22;11401;50.792;4.352;2022-12-07T16:27:15;15.10;58.00
22469;DHT22;11401;50.792;4.352;2022-12-07T16:29:42;15.10;58.10
22469;DHT22;11401;50.792;4.352;2022-12-07T16:32:09;15.10;58.00
22469;DHT22;11401;50.792;4.352;2022-12-07T16:34:36;15.10;58.10
22469;DHT22;11401;50.792;4.352;2022-12-07T16:37:03;15.10;58.10
22469;DHT22;11401;50.792;4.352;2022-12-07T16:39:32;15.10;58.00
22469;DHT22;11401;50.792;4.352;2022-12-07T16:42:00;15.10;58.00
22469;DHT22;11401;50.792;4.352;2022-12-07T16:44:27;15.10;58.10
22469;DHT22;11401;50.792;4.352;2022-12-07T16:46:54;15.10;58.10
22469;DHT22;11401;50.792;4.352;2022-12-07T16:49:21;15.10;57.90
22469;DHT22;11401;50.792;4.352;2022-12-07T16:51:50;15.00;58.00
22469;DHT22;11401;50.792;4.352;2022-12-07T16:54:37;15.10;58.10
22469;DHT22;11401;50.792;4.352;2022-12-07T16:57:04;15.10;58.10
22469;DHT22;11401;50.792;4.352;2022-12-07T16:59:31;15.00;58.10
22469;DHT22;11401;50.792;4.352;2022-12-07T17:01:58;15.00;57.80
22469;DHT22;11401;50.792;4.352;2022-12-07T17:04:25;15.10;58.00
22469;DHT22;11401;50.792;4.352;2022-12-07T17:06:52;15.10;57.90
22469;DHT22;11401;50.792;4.352;2022-12-07T17:09:19;15.10;58.10
22469;DHT22;11401;50.792;4.352;2022-12-07T17:11:47;15.10;58.10
22469;DHT22;11401;50.792;4.352;2022-12-07T17:14:14;15.10;57.60
22469;DHT22;11401;50.792;4.352;2022-12-07T17:17:00;15.00;57.70
22469;DHT22;11401;50.792;4.352;2022-12-07T17:19:27;15.00;57.80
22469;DHT22;11401;50.792;4.352;2022-12-07T17:21:54;15.00;57.40
22469;DHT22;11401;50.792;4.352;2022-12-07T17:24:21;15.00;57.30
22469;DHT22;11401;50.792;4.352;2022-12-07T17:26:48;15.00;57.30
22469;DHT22;11401;50.792;4.352;2022-12-07T17:29:16;14.90;57.60
22469;DHT22;11401;50.792;4.352;2022-12-07T17:31:45;14.90;57.60
22469;DHT22;11401;50.792;4.352;2022-12-07T17:34:17;14.90;58.00
22469;DHT22;11401;50.792;4.352;2022-12-07T17:36:45;14.90;58.20
22469;DHT22;11401;50.792;4.352;2022-12-07T17:39:15;14.90;58.10
22469;DHT22;11401;50.792;4.352;2022-12-07T17:41:42;15.00;58.40
22469;DHT22;11401;50.792;4.352;2022-12-07T17:44:28;15.00;58.10
22469;DHT22;11401;50.792;4.352;2022-12-07T17:46:56;15.00;58.00
22469;DHT22;11401;50.792;4.352;2022-12-07T17:49:25;15.00;58.10
22469;DHT22;11401;50.792;4.352;2022-12-07T17:51:53;15.00;58.70
22469;DHT22;11401;50.792;4.352;2022-12-07T17:54:43;15.00;57.90
22469;DHT22;11401;50.792;4.352;2022-12-07T17:57:10;15.00;58.00
22469;DHT22;11401;50.792;4.352;2022-12-07T17:59:37;15.00;58.00
22469;DHT22;11401;50.792;4.352;2022-12-07T18:02:04;15.10;57.80
22469;DHT22;11401;50.792;4.352;2022-12-07T18:04:32;15.10;57.80
22469;DHT22;11401;50.792;4.352;2022-12-07T18:06:59;15.00;57.70
22469;DHT22;11401;50.792;4.352;2022-12-07T18:09:26;15.00;57.80
22469;DHT22;11401;50.792;4.352;2022-12-07T18:11:53;15.00;58.00